Berriozar, Spain
Current Conditions -  °F | °C
As of 12:00 AM on Sunday 25 Jan 2015 (Local Time) from LEPP Reporting Station
Scattered Clouds Scattered Clouds  
Wind Chill: 27°   Ceiling: Unl
Heat Index: 37°   Visibility: 6mi
Dew Point: 28°   Wind: 18mph
Humidity: 70%   Direction: 350°N
Pressure: 30.42"   Gusts: NA
Location:  42.83°N, 1.67°W
Report Text: LEPP 242300Z 35016KT 9999 FEW018 SCT030 03/M02 Q1030
Loading
Personal Weather Stations






























Interactive Weather Map New forecast layout! Learn more

10-Day Weather Forecast

Advertisements
Track Severe Weather on mobile